createdAt,value
2022-10-16T12:42:33.052Z,98294.75
2022-10-16T12:47:38.819Z,98346.44
2022-10-16T12:52:42.608Z,98132.06
2022-10-16T12:58:11.771Z,98347.63
2022-10-16T13:03:34.060Z,98345.19
2022-10-16T13:08:53.130Z,98244.25
2022-10-16T13:13:59.638Z,98349.25
2022-10-16T13:19:30.727Z,98349.81
2022-10-16T13:24:43.445Z,98353.03
2022-10-16T13:29:54.056Z,98262.59
2022-10-16T13:34:58.799Z,98343.91
2022-10-16T13:40:20.818Z,98358.00
2022-10-16T13:45:30.001Z,98188.53
2022-10-16T13:50:33.910Z,98357.75
2022-10-16T13:55:37.978Z,98354.31
2022-10-16T14:00:54.717Z,98348.25
2022-10-16T14:06:05.444Z,98367.00
2022-10-16T14:11:09.086Z,98252.84
2022-10-16T14:16:19.514Z,98204.84
2022-10-16T14:21:23.037Z,98354.44
2022-10-16T14:26:29.486Z,98373.25
2022-10-16T14:31:35.211Z,98368.53
2022-10-16T14:36:42.960Z,98314.25
2022-10-16T14:41:50.254Z,98142.03
2022-10-16T14:46:53.938Z,98404.34
2022-10-16T14:51:57.668Z,98367.38
2022-10-16T14:57:01.213Z,98296.53
2022-10-16T15:02:30.053Z,98387.66
2022-10-16T15:12:41.970Z,98270.44
2022-10-16T15:17:45.551Z,98394.41
2022-10-16T15:22:50.281Z,98351.63
2022-10-16T15:27:53.734Z,98385.59
2022-10-16T15:32:57.377Z,98280.06
2022-10-16T15:38:00.885Z,98370.53
2022-10-16T15:43:04.416Z,98319.28
2022-10-16T15:48:11.638Z,98314.50
2022-10-16T15:53:15.202Z,98294.19
2022-10-16T15:58:19.157Z,98212.63
2022-10-16T16:03:22.626Z,98333.94
2022-10-16T16:08:26.189Z,98316.50
2022-10-16T16:13:30.221Z,98360.75
2022-10-16T16:18:34.957Z,98348.97
2022-10-16T16:23:43.199Z,98340.91
2022-10-16T16:28:47.504Z,98432.91
2022-10-16T16:48:41.428Z,98502.25
2022-10-16T16:53:46.336Z,98458.25
2022-10-16T16:58:52.157Z,98489.88
2022-10-16T17:03:58.190Z,98406.66
2022-10-16T17:09:04.607Z,98520.06
2022-10-16T17:14:09.940Z,98500.00
2022-10-16T17:19:19.751Z,98551.75
2022-10-16T17:24:23.480Z,98463.63
2022-10-16T17:29:27.291Z,98541.59
2022-10-16T17:34:31.308Z,98385.94
2022-10-16T17:39:34.735Z,98450.88
2022-10-16T17:44:38.219Z,98561.72
2022-10-16T17:49:41.701Z,98552.53
2022-10-16T17:54:45.843Z,98451.00
2022-10-16T17:59:49.374Z,98474.72
2022-10-16T18:04:53.471Z,98525.03
2022-10-16T18:10:11.088Z,98582.03
2022-10-16T18:15:15.321Z,98401.47
2022-10-16T18:20:19.438Z,98554.41
2022-10-16T18:25:27.722Z,98530.34
2022-10-16T18:30:31.517Z,98540.59
2022-10-16T18:35:39.138Z,98388.47
2022-10-16T18:40:42.670Z,98501.44
2022-10-16T18:45:56.527Z,98460.88
2022-10-16T18:51:17.603Z,98610.84
2022-10-16T18:56:22.950Z,98610.28
2022-10-16T19:01:29.323Z,98495.84
2022-10-16T19:06:36.781Z,98620.50
2022-10-16T19:11:41.968Z,98486.84
2022-10-16T19:16:46.313Z,98497.94
2022-10-16T19:21:56.645Z,98451.75
2022-10-16T19:27:00.575Z,98634.56
2022-10-16T19:32:07.404Z,98608.34
2022-10-16T19:37:11.974Z,98450.22
2022-10-16T19:42:15.743Z,98411.47
2022-10-16T19:47:22.201Z,98447.00
2022-10-16T19:52:38.709Z,98594.88
2022-10-16T19:57:42.808Z,98417.13
2022-10-16T20:02:46.610Z,98521.75
2022-10-16T20:07:50.145Z,98611.28
2022-10-16T20:12:54.048Z,98507.50
2022-10-16T20:17:57.651Z,98525.84
2022-10-16T20:23:01.379Z,98699.00
2022-10-16T20:28:06.025Z,98439.53
2022-10-16T20:33:20.594Z,98685.38
2022-10-16T20:38:34.294Z,98499.66
2022-10-16T20:43:44.447Z,98608.19
2022-10-16T20:48:48.731Z,98680.41
2022-10-16T20:54:04.369Z,98612.59
2022-10-16T20:59:08.303Z,98726.50
2022-10-16T21:04:12.056Z,98632.16
2022-10-16T21:09:16.155Z,98653.88
2022-10-16T21:14:20.028Z,98565.41
2022-10-16T21:19:23.902Z,98598.03
2022-10-16T21:24:27.451Z,98565.13
2022-10-16T21:29:31.204Z,98628.78
2022-10-16T21:34:35.654Z,98435.63
2022-10-16T21:39:39.741Z,98722.03
2022-10-16T21:44:49.921Z,98676.53
2022-10-16T21:49:54.227Z,98669.25
2022-10-16T21:54:58.094Z,98623.81
2022-10-16T22:00:04.256Z,98470.41
2022-10-16T22:05:10.458Z,98578.41
2022-10-16T22:10:15.702Z,98472.06
2022-10-16T22:15:19.620Z,98629.94
2022-10-16T22:20:23.511Z,98576.75
2022-10-16T22:25:27.238Z,98734.81
2022-10-16T22:30:30.960Z,98522.75
2022-10-16T22:35:39.793Z,98728.03
2022-10-16T22:41:11.598Z,98739.25
2022-10-16T22:46:18.873Z,98735.69
2022-10-16T22:51:22.718Z,98687.00
2022-10-16T22:56:26.997Z,98690.06
2022-10-16T23:01:33.950Z,98731.84
2022-10-16T23:06:37.748Z,98682.63
2022-10-16T23:11:41.682Z,98622.38
2022-10-16T23:16:52.452Z,98550.53
2022-10-16T23:21:56.461Z,98731.75
2022-10-16T23:27:00.083Z,98755.16
2022-10-16T23:32:03.948Z,98678.28
2022-10-16T23:37:07.980Z,98625.47
2022-10-16T23:42:11.761Z,98663.91
2022-10-16T23:47:16.542Z,98692.13
2022-10-16T23:52:20.299Z,98749.84
2022-10-16T23:57:24.186Z,98666.13
